createdAt,value
2022-12-23T00:03:21.248Z,86.40
2022-12-23T00:07:03.289Z,86.40
2022-12-23T00:10:46.123Z,86.40
2022-12-23T00:14:46.519Z,86.30
2022-12-23T00:18:28.780Z,86.30
2022-12-23T00:22:10.912Z,86.30
2022-12-23T00:25:52.891Z,86.30
2022-12-23T00:29:34.923Z,86.30
2022-12-23T00:33:19.428Z,86.40
2022-12-23T00:37:01.334Z,86.30
2022-12-23T00:41:21.914Z,86.30
2022-12-23T00:45:15.897Z,86.30
2022-12-23T00:49:16.649Z,86.30
2022-12-23T00:52:58.967Z,86.30
2022-12-23T00:56:40.983Z,86.20
2022-12-23T01:00:43.847Z,86.10
2022-12-23T01:04:44.586Z,86.20
2022-12-23T01:08:27.503Z,86.20
2022-12-23T01:12:09.472Z,86.10
2022-12-23T01:15:51.465Z,86.00
2022-12-23T01:19:34.415Z,86.00
2022-12-23T01:23:18.407Z,86.10
2022-12-23T01:27:00.813Z,85.90
2022-12-23T01:30:42.724Z,85.80
2022-12-23T01:34:24.798Z,85.80
2022-12-23T01:38:06.981Z,85.80
2022-12-23T01:42:07.728Z,85.80
2022-12-23T01:45:49.835Z,85.80
2022-12-23T01:49:31.908Z,85.80
2022-12-23T01:53:19.667Z,85.80
2022-12-23T01:57:01.898Z,85.70
2022-12-23T02:01:02.804Z,85.50
2022-12-23T02:04:45.090Z,85.30
2022-12-23T02:08:48.144Z,85.40
2022-12-23T02:13:09.435Z,85.40
2022-12-23T02:17:02.435Z,85.10
2022-12-23T02:21:02.299Z,85.50
2022-12-23T02:24:49.832Z,85.50
2022-12-23T02:28:42.814Z,85.60
2022-12-23T02:32:24.828Z,85.50
2022-12-23T02:36:33.729Z,85.60
2022-12-23T02:40:18.132Z,85.50
2022-12-23T02:44:23.097Z,85.50
2022-12-23T02:48:37.501Z,85.60
2022-12-23T02:52:23.731Z,85.50
2022-12-23T02:56:08.345Z,85.70
2022-12-23T02:59:52.238Z,85.70
2022-12-23T03:03:36.208Z,85.60
2022-12-23T03:07:26.719Z,85.60
2022-12-23T03:11:12.229Z,85.70
2022-12-23T03:15:20.507Z,85.70
2022-12-23T03:19:32.448Z,85.70
2022-12-23T03:23:28.760Z,85.80
2022-12-23T03:27:27.038Z,85.60
2022-12-23T03:31:15.559Z,85.40
2022-12-23T03:35:01.321Z,85.20
2022-12-23T03:38:45.265Z,85.10
2022-12-23T03:42:32.162Z,85.20
2022-12-23T03:46:19.417Z,85.40
2022-12-23T03:50:08.633Z,85.40
2022-12-23T03:53:58.982Z,85.50
2022-12-23T03:57:48.150Z,85.50
2022-12-23T04:01:42.077Z,85.60
2022-12-23T04:05:29.445Z,85.60
2022-12-23T04:09:16.636Z,85.60
2022-12-23T04:13:01.983Z,85.50
2022-12-23T04:16:44.246Z,85.50
2022-12-23T04:20:26.396Z,85.50
2022-12-23T04:24:08.652Z,85.50
2022-12-23T04:27:50.745Z,85.50
2022-12-23T04:31:32.817Z,85.50
2022-12-23T04:35:14.801Z,85.40
2022-12-23T04:38:56.863Z,85.40
2022-12-23T04:42:38.825Z,85.40
2022-12-23T04:46:21.088Z,85.50
2022-12-23T04:50:03.782Z,85.60
2022-12-23T04:53:45.747Z,85.70
2022-12-23T04:57:27.793Z,85.80
2022-12-23T05:01:12.128Z,85.80
2022-12-23T05:04:54.098Z,85.90
2022-12-23T05:08:36.224Z,85.90
2022-12-23T05:12:18.156Z,86.00
2022-12-23T05:16:00.223Z,86.00
2022-12-23T05:19:42.165Z,86.00
2022-12-23T05:23:24.236Z,85.60
2022-12-23T05:27:06.242Z,85.40
2022-12-23T05:30:48.387Z,85.40
2022-12-23T05:34:30.771Z,85.50
2022-12-23T05:38:12.734Z,85.60
2022-12-23T05:41:54.656Z,85.60
2022-12-23T05:45:37.447Z,85.60
2022-12-23T05:49:19.386Z,85.60
2022-12-23T05:53:01.379Z,85.80
2022-12-23T05:56:43.339Z,85.80
2022-12-23T06:00:25.488Z,85.70
2022-12-23T06:04:07.521Z,85.60
2022-12-23T06:07:49.629Z,85.60
2022-12-23T06:11:31.504Z,85.70
2022-12-23T06:15:13.676Z,86.00
2022-12-23T06:18:56.538Z,85.90
2022-12-23T06:22:38.346Z,85.80
2022-12-23T06:26:20.295Z,85.80
2022-12-23T06:30:02.192Z,86.00
2022-12-23T06:33:44.285Z,86.00
2022-12-23T06:37:26.107Z,86.10
2022-12-23T06:41:08.958Z,86.10
2022-12-23T06:44:51.177Z,86.10
2022-12-23T06:48:33.132Z,86.10
2022-12-23T06:52:14.982Z,86.10
2022-12-23T06:56:03.744Z,86.30
2022-12-23T06:59:45.605Z,86.40
2022-12-23T07:03:27.648Z,86.50
2022-12-23T07:07:09.512Z,86.50
2022-12-23T07:10:56.999Z,86.50
2022-12-23T07:14:38.857Z,86.50
2022-12-23T07:18:23.267Z,86.60
2022-12-23T07:22:05.209Z,86.60
2022-12-23T07:25:47.015Z,86.50
2022-12-23T07:29:28.847Z,86.50
2022-12-23T07:33:10.771Z,86.60
2022-12-23T07:36:52.740Z,86.80
2022-12-23T07:40:35.064Z,87.00
2022-12-23T07:44:16.918Z,87.10
2022-12-23T07:48:02.176Z,87.40
2022-12-23T07:51:44.086Z,87.30
2022-12-23T07:55:26.133Z,87.50
2022-12-23T07:59:08.002Z,87.30
2022-12-23T08:02:49.987Z,87.50
2022-12-23T08:06:36.619Z,87.60
2022-12-23T08:10:18.550Z,87.40
2022-12-23T08:14:00.443Z,87.70
2022-12-23T08:17:42.260Z,87.70
2022-12-23T08:21:24.284Z,87.70
2022-12-23T08:25:06.814Z,87.70
2022-12-23T08:28:50.046Z,87.80
2022-12-23T08:32:31.991Z,87.80
2022-12-23T08:36:22.371Z,87.90
2022-12-23T08:40:05.552Z,87.90
2022-12-23T08:43:48.039Z,87.70
2022-12-23T08:47:30.008Z,87.70
2022-12-23T08:51:14.279Z,87.80
2022-12-23T08:54:56.176Z,87.80
2022-12-23T08:58:42.646Z,87.80
2022-12-23T09:02:24.624Z,87.70
2022-12-23T09:06:15.447Z,87.70
2022-12-23T09:09:57.374Z,87.80
2022-12-23T09:13:39.489Z,87.70
2022-12-23T09:17:21.390Z,87.80
2022-12-23T09:21:08.866Z,87.90
2022-12-23T09:24:50.809Z,87.80
2022-12-23T09:28:32.758Z,87.80
2022-12-23T09:32:14.664Z,87.80
2022-12-23T09:36:00.133Z,88.00
2022-12-23T09:39:42.153Z,88.00
2022-12-23T09:43:48.597Z,87.90
2022-12-23T09:47:31.940Z,88.10
2022-12-23T09:51:16.094Z,87.90
2022-12-23T09:54:58.105Z,87.90
2022-12-23T09:59:21.373Z,87.90
2022-12-23T10:03:12.286Z,88.10
2022-12-23T10:07:19.884Z,87.90
2022-12-23T10:11:04.484Z,88.00
2022-12-23T10:14:49.674Z,87.80
2022-12-23T10:18:43.026Z,87.80
2022-12-23T10:22:32.172Z,87.80
2022-12-23T10:26:29.978Z,87.80
2022-12-23T10:30:42.633Z,87.90
2022-12-23T10:34:23.487Z,87.80
2022-12-23T10:38:28.261Z,87.90
2022-12-23T10:42:30.912Z,88.00
2022-12-23T10:46:48.484Z,87.90
2022-12-23T10:50:51.991Z,87.90
2022-12-23T10:54:36.935Z,87.50
2022-12-23T10:58:20.071Z,87.50
2022-12-23T11:02:11.853Z,87.50
2022-12-23T11:05:55.019Z,87.50
2022-12-23T11:09:41.387Z,87.40
2022-12-23T11:13:34.963Z,87.00
2022-12-23T11:17:33.294Z,86.80
2022-12-23T11:21:15.237Z,86.60
2022-12-23T11:25:32.927Z,86.90
2022-12-23T11:29:33.269Z,86.50
2022-12-23T11:33:39.893Z,86.70
2022-12-23T11:37:29.552Z,86.50
2022-12-23T11:41:17.754Z,86.70
2022-12-23T11:45:00.351Z,86.70
2022-12-23T11:48:42.310Z,86.80
2022-12-23T11:52:30.240Z,86.90
2022-12-23T11:56:14.889Z,86.90
2022-12-23T12:00:01.517Z,87.00
2022-12-23T12:04:05.868Z,87.30
2022-12-23T12:07:49.199Z,87.40
2022-12-23T12:11:44.301Z,87.60
2022-12-23T12:15:35.033Z,86.40
2022-12-23T12:19:30.138Z,86.30
2022-12-23T12:23:20.938Z,85.70
2022-12-23T12:27:06.589Z,85.80
2022-12-23T12:30:59.827Z,85.80
2022-12-23T12:35:02.908Z,85.70
2022-12-23T12:38:48.347Z,84.50
2022-12-23T12:42:36.914Z,85.30
2022-12-23T12:46:18.790Z,84.80
2022-12-23T12:50:06.634Z,85.60
2022-12-23T12:54:05.614Z,85.70
2022-12-23T12:57:48.192Z,85.70
2022-12-23T13:01:39.843Z,85.90
2022-12-23T13:05:51.665Z,86.20
2022-12-23T13:09:41.493Z,86.50
2022-12-23T13:13:46.801Z,86.50
2022-12-23T13:18:04.089Z,87.70
2022-12-23T13:22:08.234Z,88.00
2022-12-23T13:25:57.367Z,87.40
2022-12-23T13:29:58.538Z,87.10
2022-12-23T13:34:01.829Z,87.00
2022-12-23T13:38:08.610Z,86.70
2022-12-23T13:41:53.481Z,86.50
2022-12-23T13:45:38.041Z,86.40
2022-12-23T13:49:25.569Z,86.40
2022-12-23T13:53:20.543Z,86.60
2022-12-23T13:57:34.346Z,86.20
2022-12-23T14:01:16.188Z,86.50
2022-12-23T14:04:59.671Z,86.30
2022-12-23T14:08:42.904Z,86.20
2022-12-23T14:12:33.063Z,86.20
2022-12-23T14:16:45.579Z,86.30
2022-12-23T14:20:56.132Z,86.60
2022-12-23T14:25:02.845Z,86.60
2022-12-23T14:29:14.907Z,86.40
2022-12-23T14:33:27.749Z,86.40
2022-12-23T14:37:27.393Z,86.30
2022-12-23T14:41:23.391Z,86.30
2022-12-23T14:45:35.447Z,86.40
2022-12-23T14:49:44.163Z,86.50
2022-12-23T14:53:27.139Z,86.70
2022-12-23T14:57:18.805Z,86.70
2022-12-23T15:01:02.463Z,85.60
2022-12-23T15:04:49.277Z,85.90
2022-12-23T15:08:37.836Z,85.00
2022-12-23T15:12:43.659Z,84.90
2022-12-23T15:16:38.678Z,85.10
2022-12-23T15:20:23.392Z,85.00
2022-12-23T15:24:05.478Z,85.30
2022-12-23T15:27:49.019Z,85.10
2022-12-23T15:31:40.075Z,85.20
2022-12-23T15:35:31.747Z,84.90
2022-12-23T15:39:31.265Z,84.50
2022-12-23T15:43:23.998Z,84.90
2022-12-23T15:47:29.341Z,84.70
2022-12-23T15:55:36.450Z,84.60
2022-12-23T15:59:25.462Z,84.70
2022-12-23T16:03:25.087Z,84.60
2022-12-23T16:07:21.627Z,84.50
2022-12-23T16:11:17.011Z,84.70
2022-12-23T16:15:04.727Z,84.10
2022-12-23T16:18:47.770Z,84.90
2022-12-23T16:22:34.182Z,84.80
2022-12-23T16:26:16.106Z,84.80
2022-12-23T16:30:02.129Z,84.70
2022-12-23T16:33:45.279Z,84.80
2022-12-23T16:37:27.376Z,84.90
2022-12-23T16:41:09.242Z,84.80
2022-12-23T16:44:51.382Z,84.70
2022-12-23T16:48:39.737Z,84.70
2022-12-23T16:52:21.987Z,84.70
2022-12-23T16:56:14.216Z,84.60
2022-12-23T16:59:56.218Z,84.60
2022-12-23T17:03:38.101Z,84.60
2022-12-23T17:07:20.011Z,84.40
2022-12-23T17:11:02.026Z,84.50
2022-12-23T17:14:43.976Z,84.50
2022-12-23T17:18:25.859Z,84.40
2022-12-23T17:22:12.524Z,84.40
2022-12-23T17:25:54.993Z,84.40
2022-12-23T17:29:37.066Z,84.30
2022-12-23T17:33:20.371Z,84.50
2022-12-23T17:37:02.638Z,84.50
2022-12-23T17:40:46.955Z,84.30
2022-12-23T17:44:28.805Z,84.30
2022-12-23T17:48:17.936Z,84.30
2022-12-23T17:52:06.492Z,84.30
2022-12-23T17:55:48.367Z,84.30
2022-12-23T17:59:30.548Z,84.30
2022-12-23T18:03:23.519Z,84.40
2022-12-23T18:07:06.875Z,84.40
2022-12-23T18:10:49.969Z,84.40
2022-12-23T18:14:32.012Z,84.40
2022-12-23T18:18:27.249Z,84.40
2022-12-23T18:22:20.619Z,84.50
2022-12-23T18:26:03.031Z,84.80
2022-12-23T18:29:45.662Z,84.80
2022-12-23T18:33:29.451Z,84.80
2022-12-23T18:37:11.333Z,84.60
2022-12-23T18:40:54.951Z,84.60
2022-12-23T18:44:37.435Z,84.60
2022-12-23T18:48:19.326Z,84.60
2022-12-23T18:52:10.306Z,84.70
2022-12-23T18:55:53.557Z,84.90
2022-12-23T18:59:37.690Z,84.90
2022-12-23T19:03:30.783Z,85.00
2022-12-23T19:07:12.710Z,85.00
2022-12-23T19:10:55.915Z,84.90
2022-12-23T19:14:39.500Z,84.90
2022-12-23T19:18:22.116Z,84.90
2022-12-23T19:22:03.992Z,84.90
2022-12-23T19:25:54.494Z,84.90
2022-12-23T19:29:36.727Z,84.80
2022-12-23T19:33:18.660Z,84.90
2022-12-23T19:37:00.966Z,84.90
2022-12-23T19:40:46.196Z,84.70
2022-12-23T19:44:28.128Z,84.70
2022-12-23T19:48:09.947Z,84.80
2022-12-23T19:51:52.049Z,84.90
2022-12-23T19:55:33.989Z,84.90
2022-12-23T19:59:16.196Z,84.90
2022-12-23T20:02:59.184Z,84.90
2022-12-23T20:06:42.358Z,85.00
2022-12-23T20:10:24.199Z,85.00
2022-12-23T20:14:06.330Z,85.10
2022-12-23T20:17:48.200Z,85.00
2022-12-23T20:21:30.204Z,85.00
2022-12-23T20:25:12.054Z,85.00
2022-12-23T20:28:54.053Z,85.00
2022-12-23T20:32:37.252Z,85.00
2022-12-23T20:36:30.942Z,85.00
2022-12-23T20:40:14.623Z,85.10
2022-12-23T20:44:32.356Z,85.00
2022-12-23T20:47:58.385Z,85.00
2022-12-23T20:51:40.202Z,85.10
2022-12-23T20:55:22.785Z,85.20
2022-12-23T20:59:04.852Z,85.20
2022-12-23T21:02:47.237Z,85.20
2022-12-23T21:06:33.436Z,85.30
2022-12-23T21:10:15.468Z,85.30
2022-12-23T21:14:02.625Z,85.40
2022-12-23T21:17:47.696Z,85.40
2022-12-23T21:21:31.760Z,85.30
2022-12-23T21:25:13.762Z,85.30
2022-12-23T21:28:59.489Z,85.30
2022-12-23T21:32:41.416Z,85.20
2022-12-23T21:36:26.119Z,85.20
2022-12-23T21:40:08.875Z,85.20
2022-12-23T21:43:51.102Z,85.20
2022-12-23T21:47:33.108Z,85.30
2022-12-23T21:51:17.226Z,85.20
2022-12-23T21:54:59.065Z,85.20
2022-12-23T21:58:41.388Z,85.20
2022-12-23T22:02:23.289Z,85.20
2022-12-23T22:06:15.828Z,85.20
2022-12-23T22:09:57.692Z,85.10
2022-12-23T22:13:40.445Z,85.10
2022-12-23T22:17:22.300Z,85.10
2022-12-23T22:21:06.098Z,85.10
2022-12-23T22:24:48.018Z,85.10
2022-12-23T22:28:32.235Z,85.10
2022-12-23T22:32:14.566Z,85.10
2022-12-23T22:35:56.885Z,85.10
2022-12-23T22:39:38.782Z,85.10
2022-12-23T22:43:21.118Z,85.10
2022-12-23T22:47:03.048Z,85.20
2022-12-23T22:50:44.985Z,85.10
2022-12-23T22:54:26.869Z,85.20
2022-12-23T22:58:08.810Z,85.20
2022-12-23T23:01:52.428Z,85.20
2022-12-23T23:05:34.688Z,85.30
2022-12-23T23:09:19.025Z,85.30
2022-12-23T23:13:00.942Z,85.30
2022-12-23T23:16:44.383Z,85.30
2022-12-23T23:20:26.399Z,85.40
2022-12-23T23:24:08.702Z,85.50
2022-12-23T23:27:50.638Z,85.40
2022-12-23T23:31:41.759Z,85.40
2022-12-23T23:35:24.804Z,85.40
2022-12-23T23:39:06.776Z,85.50
2022-12-23T23:42:48.705Z,85.40
2022-12-23T23:46:31.865Z,85.40
2022-12-23T23:50:14.061Z,85.60
2022-12-23T23:53:56.213Z,85.40
2022-12-23T23:57:38.480Z,85.40
